sensor_id;sensor_type;location;lat;lon;timestamp;P1;durP1;ratioP1;P2;durP2;ratioP2
42904;SDS011;28550;51.228;4.528;2023-05-10T00:01:23;51.97;;;25.98;;
42904;SDS011;28550;51.228;4.528;2023-05-10T00:03:49;49.58;;;26.13;;
42904;SDS011;28550;51.228;4.528;2023-05-10T00:06:14;50.63;;;26.35;;
42904;SDS011;28550;51.228;4.528;2023-05-10T00:08:40;51.35;;;26.23;;
42904;SDS011;28550;51.228;4.528;2023-05-10T00:11:06;52.22;;;26.90;;
42904;SDS011;28550;51.228;4.528;2023-05-10T00:13:32;52.30;;;26.48;;
42904;SDS011;28550;51.228;4.528;2023-05-10T00:15:57;56.25;;;26.90;;
42904;SDS011;28550;51.228;4.528;2023-05-10T00:18:23;52.17;;;24.60;;
42904;SDS011;28550;51.228;4.528;2023-05-10T00:20:49;56.97;;;26.95;;
42904;SDS011;28550;51.228;4.528;2023-05-10T00:23:15;60.75;;;27.67;;
42904;SDS011;28550;51.228;4.528;2023-05-10T00:25:40;52.67;;;25.17;;
42904;SDS011;28550;51.228;4.528;2023-05-10T00:28:06;50.33;;;24.45;;
42904;SDS011;28550;51.228;4.528;2023-05-10T00:30:32;54.22;;;26.33;;
42904;SDS011;28550;51.228;4.528;2023-05-10T00:32:58;61.22;;;25.55;;
42904;SDS011;28550;51.228;4.528;2023-05-10T00:35:25;56.55;;;26.75;;
42904;SDS011;28550;51.228;4.528;2023-05-10T00:37:51;47.13;;;23.73;;
42904;SDS011;28550;51.228;4.528;2023-05-10T00:40:17;52.92;;;24.45;;
42904;SDS011;28550;51.228;4.528;2023-05-10T00:42:43;53.72;;;25.77;;
42904;SDS011;28550;51.228;4.528;2023-05-10T00:45:09;50.40;;;24.25;;
42904;SDS011;28550;51.228;4.528;2023-05-10T00:47:34;52.10;;;25.38;;
42904;SDS011;28550;51.228;4.528;2023-05-10T00:50:01;59.58;;;25.90;;
42904;SDS011;28550;51.228;4.528;2023-05-10T00:52:28;47.85;;;27.25;;
42904;SDS011;28550;51.228;4.528;2023-05-10T00:54:54;57.58;;;26.98;;
42904;SDS011;28550;51.228;4.528;2023-05-10T00:57:23;58.40;;;26.58;;
42904;SDS011;28550;51.228;4.528;2023-05-10T00:59:49;60.63;;;29.10;;
42904;SDS011;28550;51.228;4.528;2023-05-10T01:02:16;59.92;;;27.45;;
42904;SDS011;28550;51.228;4.528;2023-05-10T01:04:42;58.80;;;28.30;;
42904;SDS011;28550;51.228;4.528;2023-05-10T01:07:12;60.15;;;29.17;;
42904;SDS011;28550;51.228;4.528;2023-05-10T01:09:38;56.58;;;29.38;;
42904;SDS011;28550;51.228;4.528;2023-05-10T01:12:04;60.28;;;28.85;;
42904;SDS011;28550;51.228;4.528;2023-05-10T01:14:31;63.70;;;29.73;;
42904;SDS011;28550;51.228;4.528;2023-05-10T01:16:58;62.00;;;29.02;;
42904;SDS011;28550;51.228;4.528;2023-05-10T01:19:26;62.45;;;29.92;;
42904;SDS011;28550;51.228;4.528;2023-05-10T01:33:35;57.05;;;28.88;;
42904;SDS011;28550;51.228;4.528;2023-05-10T01:41:36;75.57;;;31.92;;
42904;SDS011;28550;51.228;4.528;2023-05-10T01:44:14;67.78;;;33.15;;
42904;SDS011;28550;51.228;4.528;2023-05-10T01:46:47;82.65;;;33.60;;
42904;SDS011;28550;51.228;4.528;2023-05-10T01:49:28;69.63;;;32.17;;
42904;SDS011;28550;51.228;4.528;2023-05-10T01:52:00;65.80;;;33.42;;
42904;SDS011;28550;51.228;4.528;2023-05-10T01:57:02;80.10;;;35.95;;
42904;SDS011;28550;51.228;4.528;2023-05-10T01:59:33;79.25;;;34.67;;
42904;SDS011;28550;51.228;4.528;2023-05-10T02:02:06;82.03;;;35.30;;
42904;SDS011;28550;51.228;4.528;2023-05-10T02:04:36;71.40;;;34.88;;
42904;SDS011;28550;51.228;4.528;2023-05-10T02:07:16;65.80;;;31.55;;
42904;SDS011;28550;51.228;4.528;2023-05-10T02:12:18;69.72;;;34.35;;
42904;SDS011;28550;51.228;4.528;2023-05-10T02:14:45;65.78;;;33.00;;
42904;SDS011;28550;51.228;4.528;2023-05-10T02:17:12;69.32;;;32.00;;
42904;SDS011;28550;51.228;4.528;2023-05-10T02:19:40;68.05;;;34.00;;
42904;SDS011;28550;51.228;4.528;2023-05-10T02:22:07;75.53;;;33.33;;
42904;SDS011;28550;51.228;4.528;2023-05-10T02:24:34;75.10;;;32.28;;
42904;SDS011;28550;51.228;4.528;2023-05-10T02:27:03;73.15;;;35.45;;
42904;SDS011;28550;51.228;4.528;2023-05-10T02:29:31;77.20;;;33.08;;
42904;SDS011;28550;51.228;4.528;2023-05-10T02:31:58;77.93;;;36.35;;
42904;SDS011;28550;51.228;4.528;2023-05-10T02:34:25;76.55;;;38.72;;
42904;SDS011;28550;51.228;4.528;2023-05-10T02:36:53;70.65;;;33.72;;
42904;SDS011;28550;51.228;4.528;2023-05-10T02:39:21;65.95;;;31.55;;
42904;SDS011;28550;51.228;4.528;2023-05-10T02:41:50;65.57;;;31.23;;
42904;SDS011;28550;51.228;4.528;2023-05-10T02:44:18;59.28;;;31.83;;
42904;SDS011;28550;51.228;4.528;2023-05-10T02:46:45;64.03;;;30.25;;
42904;SDS011;28550;51.228;4.528;2023-05-10T02:49:12;63.05;;;29.20;;
42904;SDS011;28550;51.228;4.528;2023-05-10T02:51:40;56.88;;;29.52;;
42904;SDS011;28550;51.228;4.528;2023-05-10T02:54:11;63.13;;;31.02;;
42904;SDS011;28550;51.228;4.528;2023-05-10T02:56:47;88.82;;;37.42;;
42904;SDS011;28550;51.228;4.528;2023-05-10T02:59:21;74.38;;;35.22;;
42904;SDS011;28550;51.228;4.528;2023-05-10T03:01:50;98.10;;;43.83;;
42904;SDS011;28550;51.228;4.528;2023-05-10T03:04:16;121.07;;;46.33;;
42904;SDS011;28550;51.228;4.528;2023-05-10T03:06:41;124.72;;;48.67;;
42904;SDS011;28550;51.228;4.528;2023-05-10T03:09:08;130.65;;;51.17;;
42904;SDS011;28550;51.228;4.528;2023-05-10T03:17:30;134.10;;;55.35;;
42904;SDS011;28550;51.228;4.528;2023-05-10T03:20:08;133.02;;;53.70;;
42904;SDS011;28550;51.228;4.528;2023-05-10T03:25:52;111.07;;;51.33;;
42904;SDS011;28550;51.228;4.528;2023-05-10T03:28:18;117.10;;;47.35;;
42904;SDS011;28550;51.228;4.528;2023-05-10T03:30:46;104.18;;;47.05;;
42904;SDS011;28550;51.228;4.528;2023-05-10T03:33:12;99.38;;;44.92;;
42904;SDS011;28550;51.228;4.528;2023-05-10T03:35:39;101.57;;;44.72;;
42904;SDS011;28550;51.228;4.528;2023-05-10T03:38:04;92.55;;;43.03;;
42904;SDS011;28550;51.228;4.528;2023-05-10T03:40:33;88.50;;;36.28;;
42904;SDS011;28550;51.228;4.528;2023-05-10T03:43:11;85.15;;;37.90;;
42904;SDS011;28550;51.228;4.528;2023-05-10T03:45:46;87.10;;;37.90;;
42904;SDS011;28550;51.228;4.528;2023-05-10T03:48:12;65.88;;;31.20;;
42904;SDS011;28550;51.228;4.528;2023-05-10T03:50:38;72.75;;;31.77;;
42904;SDS011;28550;51.228;4.528;2023-05-10T03:53:04;70.43;;;33.70;;
42904;SDS011;28550;51.228;4.528;2023-05-10T03:55:30;75.97;;;32.65;;
42904;SDS011;28550;51.228;4.528;2023-05-10T03:57:59;71.57;;;33.15;;
42904;SDS011;28550;51.228;4.528;2023-05-10T04:00:31;75.68;;;33.88;;
42904;SDS011;28550;51.228;4.528;2023-05-10T04:02:57;70.25;;;32.60;;
42904;SDS011;28550;51.228;4.528;2023-05-10T04:05:23;68.47;;;31.20;;
42904;SDS011;28550;51.228;4.528;2023-05-10T04:07:49;67.55;;;31.48;;
42904;SDS011;28550;51.228;4.528;2023-05-10T04:10:16;67.47;;;32.60;;
42904;SDS011;28550;51.228;4.528;2023-05-10T04:12:41;73.10;;;32.50;;
42904;SDS011;28550;51.228;4.528;2023-05-10T04:15:07;73.15;;;32.92;;
42904;SDS011;28550;51.228;4.528;2023-05-10T04:22:38;74.50;;;31.95;;
42904;SDS011;28550;51.228;4.528;2023-05-10T04:25:04;77.28;;;34.30;;
42904;SDS011;28550;51.228;4.528;2023-05-10T04:27:30;81.30;;;32.83;;
42904;SDS011;28550;51.228;4.528;2023-05-10T04:30:06;80.82;;;33.78;;
42904;SDS011;28550;51.228;4.528;2023-05-10T04:32:43;77.80;;;34.58;;
42904;SDS011;28550;51.228;4.528;2023-05-10T04:35:17;75.18;;;33.75;;
42904;SDS011;28550;51.228;4.528;2023-05-10T04:37:43;80.13;;;34.70;;
42904;SDS011;28550;51.228;4.528;2023-05-10T04:40:09;77.68;;;32.33;;
42904;SDS011;28550;51.228;4.528;2023-05-10T04:42:39;72.10;;;33.17;;
42904;SDS011;28550;51.228;4.528;2023-05-10T04:45:06;72.93;;;33.17;;
42904;SDS011;28550;51.228;4.528;2023-05-10T04:47:32;72.78;;;33.13;;
42904;SDS011;28550;51.228;4.528;2023-05-10T04:49:58;64.97;;;30.80;;
42904;SDS011;28550;51.228;4.528;2023-05-10T04:52:27;60.50;;;30.17;;
42904;SDS011;28550;51.228;4.528;2023-05-10T04:55:42;75.32;;;32.50;;
42904;SDS011;28550;51.228;4.528;2023-05-10T04:58:08;78.93;;;30.63;;
42904;SDS011;28550;51.228;4.528;2023-05-10T05:00:34;70.32;;;32.88;;
42904;SDS011;28550;51.228;4.528;2023-05-10T05:03:00;75.03;;;31.20;;
42904;SDS011;28550;51.228;4.528;2023-05-10T05:05:32;65.68;;;29.80;;
42904;SDS011;28550;51.228;4.528;2023-05-10T05:07:57;69.07;;;31.17;;
42904;SDS011;28550;51.228;4.528;2023-05-10T05:10:26;69.63;;;32.38;;
42904;SDS011;28550;51.228;4.528;2023-05-10T05:12:55;72.05;;;32.85;;
42904;SDS011;28550;51.228;4.528;2023-05-10T05:23:47;60.58;;;29.27;;
42904;SDS011;28550;51.228;4.528;2023-05-10T05:26:13;55.80;;;27.20;;
42904;SDS011;28550;51.228;4.528;2023-05-10T05:28:42;58.78;;;27.30;;
42904;SDS011;28550;51.228;4.528;2023-05-10T05:31:11;61.88;;;28.40;;
42904;SDS011;28550;51.228;4.528;2023-05-10T05:33:37;64.30;;;28.42;;
42904;SDS011;28550;51.228;4.528;2023-05-10T05:36:03;54.70;;;28.23;;
42904;SDS011;28550;51.228;4.528;2023-05-10T05:38:33;62.92;;;31.15;;
42904;SDS011;28550;51.228;4.528;2023-05-10T05:40:59;61.25;;;28.23;;
42904;SDS011;28550;51.228;4.528;2023-05-10T05:43:27;59.42;;;28.92;;
42904;SDS011;28550;51.228;4.528;2023-05-10T05:45:53;65.75;;;30.90;;
42904;SDS011;28550;51.228;4.528;2023-05-10T05:48:22;59.55;;;29.00;;
42904;SDS011;28550;51.228;4.528;2023-05-10T05:50:48;56.88;;;26.48;;
42904;SDS011;28550;51.228;4.528;2023-05-10T05:53:22;57.78;;;27.77;;
42904;SDS011;28550;51.228;4.528;2023-05-10T05:58:50;54.83;;;25.83;;
42904;SDS011;28550;51.228;4.528;2023-05-10T06:01:24;54.10;;;25.63;;
42904;SDS011;28550;51.228;4.528;2023-05-10T06:03:53;53.60;;;24.67;;
42904;SDS011;28550;51.228;4.528;2023-05-10T06:06:19;52.85;;;25.20;;
42904;SDS011;28550;51.228;4.528;2023-05-10T06:08:47;50.53;;;24.45;;
42904;SDS011;28550;51.228;4.528;2023-05-10T06:11:15;55.60;;;27.52;;
42904;SDS011;28550;51.228;4.528;2023-05-10T06:13:45;43.30;;;23.27;;
42904;SDS011;28550;51.228;4.528;2023-05-10T06:27:43;41.67;;;21.67;;
42904;SDS011;28550;51.228;4.528;2023-05-10T06:30:24;39.10;;;20.77;;
42904;SDS011;28550;51.228;4.528;2023-05-10T06:32:53;40.20;;;20.73;;
42904;SDS011;28550;51.228;4.528;2023-05-10T06:35:27;39.08;;;21.52;;
42904;SDS011;28550;51.228;4.528;2023-05-10T06:37:55;39.38;;;22.65;;
42904;SDS011;28550;51.228;4.528;2023-05-10T06:40:30;38.33;;;20.35;;
42904;SDS011;28550;51.228;4.528;2023-05-10T06:42:56;39.08;;;22.08;;
42904;SDS011;28550;51.228;4.528;2023-05-10T06:45:23;37.92;;;21.88;;
42904;SDS011;28550;51.228;4.528;2023-05-10T06:47:58;36.55;;;21.23;;
42904;SDS011;28550;51.228;4.528;2023-05-10T06:50:23;40.78;;;22.02;;
42904;SDS011;28550;51.228;4.528;2023-05-10T06:52:49;36.47;;;20.50;;
42904;SDS011;28550;51.228;4.528;2023-05-10T06:55:35;38.47;;;21.38;;
42904;SDS011;28550;51.228;4.528;2023-05-10T07:00:53;39.10;;;21.60;;
42904;SDS011;28550;51.228;4.528;2023-05-10T07:03:18;42.15;;;22.42;;
42904;SDS011;28550;51.228;4.528;2023-05-10T07:08:50;36.05;;;21.60;;
42904;SDS011;28550;51.228;4.528;2023-05-10T07:11:18;39.47;;;22.98;;
42904;SDS011;28550;51.228;4.528;2023-05-10T07:13:48;36.45;;;20.30;;
42904;SDS011;28550;51.228;4.528;2023-05-10T07:16:16;41.35;;;23.15;;
42904;SDS011;28550;51.228;4.528;2023-05-10T07:18:42;41.38;;;21.85;;
42904;SDS011;28550;51.228;4.528;2023-05-10T07:21:22;36.05;;;20.98;;
42904;SDS011;28550;51.228;4.528;2023-05-10T07:23:54;37.40;;;20.92;;
42904;SDS011;28550;51.228;4.528;2023-05-10T07:26:25;34.78;;;18.70;;
42904;SDS011;28550;51.228;4.528;2023-05-10T07:28:55;31.90;;;18.05;;
42904;SDS011;28550;51.228;4.528;2023-05-10T07:31:33;32.80;;;19.13;;
42904;SDS011;28550;51.228;4.528;2023-05-10T07:33:59;28.67;;;17.83;;
42904;SDS011;28550;51.228;4.528;2023-05-10T07:36:25;31.20;;;17.95;;
42904;SDS011;28550;51.228;4.528;2023-05-10T07:38:52;34.38;;;18.65;;
42904;SDS011;28550;51.228;4.528;2023-05-10T07:41:18;28.90;;;17.98;;
42904;SDS011;28550;51.228;4.528;2023-05-10T07:43:54;28.23;;;17.98;;
42904;SDS011;28550;51.228;4.528;2023-05-10T07:46:35;24.13;;;16.48;;
42904;SDS011;28550;51.228;4.528;2023-05-10T07:49:01;28.15;;;17.75;;
42904;SDS011;28550;51.228;4.528;2023-05-10T07:51:29;25.02;;;15.80;;
42904;SDS011;28550;51.228;4.528;2023-05-10T07:56:24;21.65;;;14.98;;
42904;SDS011;28550;51.228;4.528;2023-05-10T07:59:01;23.33;;;15.15;;
42904;SDS011;28550;51.228;4.528;2023-05-10T08:01:40;23.75;;;13.43;;
42904;SDS011;28550;51.228;4.528;2023-05-10T08:04:05;19.40;;;13.30;;
42904;SDS011;28550;51.228;4.528;2023-05-10T08:06:32;15.68;;;11.20;;
42904;SDS011;28550;51.228;4.528;2023-05-10T08:09:19;18.85;;;10.15;;
42904;SDS011;28550;51.228;4.528;2023-05-10T08:11:49;12.23;;;8.75;;
42904;SDS011;28550;51.228;4.528;2023-05-10T08:14:16;11.20;;;8.43;;
42904;SDS011;28550;51.228;4.528;2023-05-10T08:16:48;11.10;;;8.32;;
42904;SDS011;28550;51.228;4.528;2023-05-10T08:19:14;11.48;;;8.13;;
42904;SDS011;28550;51.228;4.528;2023-05-10T08:21:51;11.30;;;8.23;;
42904;SDS011;28550;51.228;4.528;2023-05-10T08:24:27;12.13;;;8.50;;
42904;SDS011;28550;51.228;4.528;2023-05-10T08:26:53;10.63;;;8.20;;
42904;SDS011;28550;51.228;4.528;2023-05-10T08:29:22;9.93;;;7.10;;
42904;SDS011;28550;51.228;4.528;2023-05-10T08:32:01;10.43;;;8.30;;
42904;SDS011;28550;51.228;4.528;2023-05-10T08:34:42;10.98;;;8.40;;
42904;SDS011;28550;51.228;4.528;2023-05-10T08:47:37;10.25;;;7.03;;
42904;SDS011;28550;51.228;4.528;2023-05-10T08:50:03;10.45;;;6.93;;
42904;SDS011;28550;51.228;4.528;2023-05-10T08:52:36;11.65;;;7.53;;
42904;SDS011;28550;51.228;4.528;2023-05-10T08:55:05;8.07;;;6.30;;
42904;SDS011;28550;51.228;4.528;2023-05-10T08:57:31;9.65;;;6.43;;
42904;SDS011;28550;51.228;4.528;2023-05-10T09:00:15;9.13;;;5.60;;
42904;SDS011;28550;51.228;4.528;2023-05-10T09:05:12;14.30;;;9.98;;
42904;SDS011;28550;51.228;4.528;2023-05-10T09:10:11;9.55;;;7.57;;
42904;SDS011;28550;51.228;4.528;2023-05-10T09:15:33;10.15;;;7.00;;
42904;SDS011;28550;51.228;4.528;2023-05-10T09:18:00;10.60;;;8.18;;
42904;SDS011;28550;51.228;4.528;2023-05-10T09:26:56;20.15;;;14.75;;
42904;SDS011;28550;51.228;4.528;2023-05-10T09:29:23;26.90;;;19.38;;
42904;SDS011;28550;51.228;4.528;2023-05-10T09:32:12;27.25;;;18.60;;
42904;SDS011;28550;51.228;4.528;2023-05-10T09:34:40;28.50;;;20.17;;
42904;SDS011;28550;51.228;4.528;2023-05-10T09:37:16;29.75;;;19.55;;
42904;SDS011;28550;51.228;4.528;2023-05-10T09:39:42;30.83;;;20.08;;
42904;SDS011;28550;51.228;4.528;2023-05-10T09:42:08;29.98;;;19.13;;
42904;SDS011;28550;51.228;4.528;2023-05-10T09:44:38;27.83;;;18.70;;
42904;SDS011;28550;51.228;4.528;2023-05-10T09:47:05;30.38;;;17.77;;
42904;SDS011;28550;51.228;4.528;2023-05-10T09:49:31;26.05;;;15.93;;
42904;SDS011;28550;51.228;4.528;2023-05-10T09:55:00;28.33;;;17.00;;
42904;SDS011;28550;51.228;4.528;2023-05-10T09:57:26;27.25;;;17.48;;
42904;SDS011;28550;51.228;4.528;2023-05-10T09:59:53;34.70;;;17.55;;
42904;SDS011;28550;51.228;4.528;2023-05-10T10:02:27;28.17;;;15.93;;
42904;SDS011;28550;51.228;4.528;2023-05-10T10:04:54;27.55;;;15.73;;
42904;SDS011;28550;51.228;4.528;2023-05-10T10:07:23;23.55;;;14.95;;
42904;SDS011;28550;51.228;4.528;2023-05-10T10:09:50;25.13;;;15.48;;
42904;SDS011;28550;51.228;4.528;2023-05-10T10:12:38;26.80;;;15.27;;
42904;SDS011;28550;51.228;4.528;2023-05-10T10:15:11;26.63;;;15.63;;
42904;SDS011;28550;51.228;4.528;2023-05-10T10:17:40;30.20;;;14.85;;
42904;SDS011;28550;51.228;4.528;2023-05-10T10:20:08;27.52;;;14.57;;
42904;SDS011;28550;51.228;4.528;2023-05-10T10:22:35;25.10;;;13.80;;
42904;SDS011;28550;51.228;4.528;2023-05-10T10:25:10;28.10;;;14.30;;
42904;SDS011;28550;51.228;4.528;2023-05-10T10:36:09;27.60;;;14.65;;
42904;SDS011;28550;51.228;4.528;2023-05-10T10:41:29;23.67;;;13.75;;
42904;SDS011;28550;51.228;4.528;2023-05-10T10:52:42;27.40;;;16.30;;
42904;SDS011;28550;51.228;4.528;2023-05-10T10:55:19;20.50;;;13.82;;
42904;SDS011;28550;51.228;4.528;2023-05-10T10:57:56;25.85;;;15.77;;
42904;SDS011;28550;51.228;4.528;2023-05-10T11:00:31;28.40;;;13.40;;
42904;SDS011;28550;51.228;4.528;2023-05-10T11:03:12;25.20;;;14.40;;
42904;SDS011;28550;51.228;4.528;2023-05-10T11:05:47;25.25;;;14.52;;
42904;SDS011;28550;51.228;4.528;2023-05-10T11:11:19;22.13;;;12.98;;
42904;SDS011;28550;51.228;4.528;2023-05-10T11:13:46;23.98;;;12.70;;
42904;SDS011;28550;51.228;4.528;2023-05-10T11:18:59;23.58;;;12.93;;
42904;SDS011;28550;51.228;4.528;2023-05-10T11:21:31;28.85;;;13.77;;
42904;SDS011;28550;51.228;4.528;2023-05-10T11:23:59;24.27;;;14.10;;
42904;SDS011;28550;51.228;4.528;2023-05-10T11:26:43;23.58;;;13.57;;
42904;SDS011;28550;51.228;4.528;2023-05-10T11:29:21;27.55;;;14.52;;
42904;SDS011;28550;51.228;4.528;2023-05-10T11:31:47;23.70;;;13.43;;
42904;SDS011;28550;51.228;4.528;2023-05-10T11:34:24;24.55;;;12.70;;
42904;SDS011;28550;51.228;4.528;2023-05-10T11:37:09;28.73;;;14.18;;
42904;SDS011;28550;51.228;4.528;2023-05-10T11:39:45;23.75;;;13.35;;
42904;SDS011;28550;51.228;4.528;2023-05-10T11:42:15;24.63;;;13.70;;
42904;SDS011;28550;51.228;4.528;2023-05-10T11:44:45;23.75;;;13.30;;
42904;SDS011;28550;51.228;4.528;2023-05-10T11:47:14;26.02;;;13.30;;
42904;SDS011;28550;51.228;4.528;2023-05-10T11:49:43;22.20;;;13.73;;
42904;SDS011;28550;51.228;4.528;2023-05-10T11:52:10;24.25;;;14.88;;
42904;SDS011;28550;51.228;4.528;2023-05-10T11:55:12;27.02;;;14.90;;
42904;SDS011;28550;51.228;4.528;2023-05-10T11:57:31;26.83;;;15.45;;
42904;SDS011;28550;51.228;4.528;2023-05-10T11:59:56;28.30;;;14.60;;
42904;SDS011;28550;51.228;4.528;2023-05-10T12:05:41;25.80;;;15.38;;
42904;SDS011;28550;51.228;4.528;2023-05-10T12:08:19;28.13;;;15.65;;
42904;SDS011;28550;51.228;4.528;2023-05-10T12:10:53;33.55;;;16.25;;
42904;SDS011;28550;51.228;4.528;2023-05-10T12:13:41;28.30;;;16.45;;
42904;SDS011;28550;51.228;4.528;2023-05-10T12:19:22;27.42;;;16.85;;
42904;SDS011;28550;51.228;4.528;2023-05-10T12:57:05;25.33;;;13.82;;
42904;SDS011;28550;51.228;4.528;2023-05-10T13:00:26;24.42;;;13.85;;
42904;SDS011;28550;51.228;4.528;2023-05-10T13:09:32;21.52;;;13.10;;
42904;SDS011;28550;51.228;4.528;2023-05-10T13:41:22;20.50;;;13.48;;
42904;SDS011;28550;51.228;4.528;2023-05-10T15:16:32;28.55;;;15.23;;
42904;SDS011;28550;51.228;4.528;2023-05-10T16:49:11;47.28;;;30.27;;
42904;SDS011;28550;51.228;4.528;2023-05-10T16:52:06;37.13;;;24.33;;
42904;SDS011;28550;51.228;4.528;2023-05-10T16:57:10;32.13;;;23.27;;
42904;SDS011;28550;51.228;4.528;2023-05-10T17:02:34;35.63;;;25.48;;
42904;SDS011;28550;51.228;4.528;2023-05-10T17:05:59;38.00;;;25.13;;
42904;SDS011;28550;51.228;4.528;2023-05-10T17:09:07;33.00;;;25.05;;
42904;SDS011;28550;51.228;4.528;2023-05-10T17:14:46;46.08;;;30.40;;
42904;SDS011;28550;51.228;4.528;2023-05-10T17:18:08;48.88;;;32.05;;
42904;SDS011;28550;51.228;4.528;2023-05-10T17:20:43;53.95;;;35.38;;
42904;SDS011;28550;51.228;4.528;2023-05-10T17:27:07;50.30;;;32.28;;
42904;SDS011;28550;51.228;4.528;2023-05-10T17:29:21;47.45;;;32.10;;
42904;SDS011;28550;51.228;4.528;2023-05-10T17:31:51;49.85;;;29.50;;
42904;SDS011;28550;51.228;4.528;2023-05-10T17:34:17;42.30;;;27.58;;
42904;SDS011;28550;51.228;4.528;2023-05-10T17:36:56;50.30;;;25.55;;
42904;SDS011;28550;51.228;4.528;2023-05-10T17:39:22;45.13;;;27.88;;
42904;SDS011;28550;51.228;4.528;2023-05-10T17:41:48;40.63;;;25.63;;
42904;SDS011;28550;51.228;4.528;2023-05-10T17:44:23;42.15;;;26.73;;
42904;SDS011;28550;51.228;4.528;2023-05-10T17:51:13;45.88;;;28.67;;
42904;SDS011;28550;51.228;4.528;2023-05-10T17:57:26;47.97;;;29.48;;
42904;SDS011;28550;51.228;4.528;2023-05-10T18:00:28;48.63;;;27.65;;
42904;SDS011;28550;51.228;4.528;2023-05-10T18:02:56;42.40;;;25.67;;
42904;SDS011;28550;51.228;4.528;2023-05-10T18:05:24;36.28;;;21.92;;
42904;SDS011;28550;51.228;4.528;2023-05-10T18:07:50;38.55;;;21.70;;
42904;SDS011;28550;51.228;4.528;2023-05-10T18:10:30;38.17;;;21.58;;
42904;SDS011;28550;51.228;4.528;2023-05-10T18:12:57;29.05;;;19.70;;
42904;SDS011;28550;51.228;4.528;2023-05-10T18:19:02;31.55;;;19.10;;
42904;SDS011;28550;51.228;4.528;2023-05-10T18:21:32;31.33;;;18.08;;
42904;SDS011;28550;51.228;4.528;2023-05-10T18:24:18;35.35;;;19.73;;
42904;SDS011;28550;51.228;4.528;2023-05-10T18:27:21;36.08;;;18.25;;
42904;SDS011;28550;51.228;4.528;2023-05-10T18:30:25;31.13;;;17.75;;
42904;SDS011;28550;51.228;4.528;2023-05-10T18:33:15;41.38;;;17.80;;
42904;SDS011;28550;51.228;4.528;2023-05-10T18:36:18;30.30;;;16.75;;
42904;SDS011;28550;51.228;4.528;2023-05-10T18:38:48;33.25;;;17.60;;
42904;SDS011;28550;51.228;4.528;2023-05-10T18:41:13;32.47;;;17.23;;
42904;SDS011;28550;51.228;4.528;2023-05-10T18:43:43;29.65;;;16.15;;
42904;SDS011;28550;51.228;4.528;2023-05-10T18:46:38;31.80;;;16.10;;
42904;SDS011;28550;51.228;4.528;2023-05-10T18:49:16;33.45;;;17.58;;
42904;SDS011;28550;51.228;4.528;2023-05-10T18:52:10;28.42;;;18.15;;
42904;SDS011;28550;51.228;4.528;2023-05-10T18:55:02;33.53;;;17.33;;
42904;SDS011;28550;51.228;4.528;2023-05-10T18:57:31;33.33;;;18.25;;
42904;SDS011;28550;51.228;4.528;2023-05-10T19:00:44;39.70;;;17.65;;
42904;SDS011;28550;51.228;4.528;2023-05-10T19:03:22;35.47;;;19.15;;
42904;SDS011;28550;51.228;4.528;2023-05-10T19:06:05;36.22;;;18.90;;
42904;SDS011;28550;51.228;4.528;2023-05-10T19:08:48;37.67;;;20.45;;
42904;SDS011;28550;51.228;4.528;2023-05-10T19:15:07;42.72;;;23.40;;
42904;SDS011;28550;51.228;4.528;2023-05-10T19:17:35;40.65;;;23.80;;
42904;SDS011;28550;51.228;4.528;2023-05-10T19:20:35;44.30;;;23.88;;
42904;SDS011;28550;51.228;4.528;2023-05-10T19:26:07;42.83;;;23.50;;
42904;SDS011;28550;51.228;4.528;2023-05-10T19:29:17;40.63;;;24.75;;
42904;SDS011;28550;51.228;4.528;2023-05-10T19:31:43;43.95;;;25.65;;
42904;SDS011;28550;51.228;4.528;2023-05-10T19:34:09;45.47;;;25.73;;
42904;SDS011;28550;51.228;4.528;2023-05-10T19:43:33;43.08;;;25.05;;
42904;SDS011;28550;51.228;4.528;2023-05-10T19:46:25;40.47;;;24.48;;
42904;SDS011;28550;51.228;4.528;2023-05-10T19:48:51;44.35;;;25.17;;
42904;SDS011;28550;51.228;4.528;2023-05-10T19:53:46;40.63;;;25.00;;
42904;SDS011;28550;51.228;4.528;2023-05-10T19:59:23;39.65;;;24.67;;
42904;SDS011;28550;51.228;4.528;2023-05-10T20:01:58;41.83;;;24.48;;
42904;SDS011;28550;51.228;4.528;2023-05-10T20:04:24;43.15;;;24.80;;
42904;SDS011;28550;51.228;4.528;2023-05-10T20:06:52;35.75;;;23.15;;
42904;SDS011;28550;51.228;4.528;2023-05-10T20:13:25;41.25;;;25.83;;
42904;SDS011;28550;51.228;4.528;2023-05-10T20:15:55;44.78;;;24.02;;
42904;SDS011;28550;51.228;4.528;2023-05-10T20:18:27;37.05;;;24.38;;
42904;SDS011;28550;51.228;4.528;2023-05-10T20:27:32;44.33;;;25.00;;
42904;SDS011;28550;51.228;4.528;2023-05-10T20:30:51;44.55;;;25.58;;
42904;SDS011;28550;51.228;4.528;2023-05-10T20:39:17;41.83;;;26.05;;
42904;SDS011;28550;51.228;4.528;2023-05-10T20:41:55;41.90;;;24.33;;
42904;SDS011;28550;51.228;4.528;2023-05-10T20:44:29;37.10;;;25.75;;
42904;SDS011;28550;51.228;4.528;2023-05-10T20:46:57;48.28;;;26.35;;
42904;SDS011;28550;51.228;4.528;2023-05-10T20:49:23;46.78;;;25.65;;
42904;SDS011;28550;51.228;4.528;2023-05-10T20:52:04;47.38;;;27.27;;
42904;SDS011;28550;51.228;4.528;2023-05-10T20:55:00;46.45;;;28.38;;
42904;SDS011;28550;51.228;4.528;2023-05-10T21:29:30;47.03;;;26.67;;
42904;SDS011;28550;51.228;4.528;2023-05-10T21:53:39;63.03;;;32.45;;
42904;SDS011;28550;51.228;4.528;2023-05-10T21:56:56;60.08;;;31.20;;
42904;SDS011;28550;51.228;4.528;2023-05-10T22:56:10;65.38;;;32.40;;
42904;SDS011;28550;51.228;4.528;2023-05-10T23:09:32;77.43;;;36.28;;
42904;SDS011;28550;51.228;4.528;2023-05-10T23:12:14;66.40;;;36.08;;
42904;SDS011;28550;51.228;4.528;2023-05-10T23:30:23;65.97;;;37.88;;
42904;SDS011;28550;51.228;4.528;2023-05-10T23:36:20;72.57;;;39.05;;
42904;SDS011;28550;51.228;4.528;2023-05-10T23:39:15;69.00;;;38.28;;
42904;SDS011;28550;51.228;4.528;2023-05-10T23:42:15;73.38;;;39.95;;
42904;SDS011;28550;51.228;4.528;2023-05-10T23:45:20;73.15;;;38.58;;
42904;SDS011;28550;51.228;4.528;2023-05-10T23:47:58;74.13;;;38.88;;
42904;SDS011;28550;51.228;4.528;2023-05-10T23:50:24;63.25;;;36.40;;
42904;SDS011;28550;51.228;4.528;2023-05-10T23:53:50;77.15;;;39.20;;
